Time;durP1;ratioP1;P1;durP2;ratioP2;P2;SDS_P1;SDS_P2;PMS_P1;PMS_P2;Temp;Humidity;BMP_temperature;BMP_pressure;BME280_temperature;BME280_humidity;BME280_pressure;Samples;Min_cycle;Max_cycle;Signal;HPM_P1;HPM_P2
2023/02/05 00:00:08;;;;;;;7.35;4.53;;;3.10;99.90;;;;;;5047757;28;20056;-68
2023/02/05 00:02:35;;;;;;;9.93;5.30;;;3.10;99.90;;;;;;5046967;28;20045;-67
2023/02/05 00:05:01;;;;;;;8.98;4.28;;;3.10;99.90;;;;;;5064037;28;20103;-67
2023/02/05 00:07:27;;;;;;;10.93;3.78;;;3.10;99.90;;;;;;5036837;28;20041;-67
2023/02/05 00:09:52;;;;;;;6.22;4.75;;;3.00;99.90;;;;;;5046735;28;20090;-68
2023/02/05 00:12:18;;;;;;;6.35;4.93;;;3.00;99.90;;;;;;5045975;28;20088;-68
2023/02/05 00:14:44;;;;;;;5.13;4.22;;;3.00;99.90;;;;;;5046898;28;20049;-68
2023/02/05 00:17:10;;;;;;;5.55;4.43;;;3.00;99.90;;;;;;5080983;28;20049;-68
2023/02/05 00:19:37;;;;;;;10.35;4.22;;;3.00;99.90;;;;;;5079655;28;20040;-67
2023/02/05 00:22:04;;;;;;;6.28;5.00;;;3.10;99.90;;;;;;5048748;28;20471;-68
2023/02/05 00:24:29;;;;;;;7.38;3.70;;;3.10;99.90;;;;;;5042942;28;20045;-68
2023/02/05 00:26:55;;;;;;;6.97;4.38;;;3.10;99.90;;;;;;5047871;28;20416;-68
2023/02/05 00:29:21;;;;;;;8.48;4.13;;;3.10;99.90;;;;;;5046231;28;20044;-67
2023/02/05 00:31:48;;;;;;;7.20;4.40;;;3.10;99.90;;;;;;5046292;28;20067;-68
2023/02/05 00:34:15;;;;;;;5.22;4.72;;;3.10;99.90;;;;;;5062950;28;20049;-68
2023/02/05 00:36:41;;;;;;;4.72;4.30;;;3.10;99.90;;;;;;5039511;28;20083;-67
2023/02/05 00:39:08;;;;;;;5.25;4.00;;;3.10;99.90;;;;;;5046834;28;20053;-68
2023/02/05 00:41:34;;;;;;;6.50;4.05;;;3.10;99.90;;;;;;5040304;28;20136;-67
2023/02/05 00:44:00;;;;;;;5.03;4.00;;;3.20;99.90;;;;;;5080036;28;20609;-68
2023/02/05 00:46:26;;;;;;;4.97;4.30;;;3.10;99.90;;;;;;5047236;28;20470;-68
2023/02/05 00:48:52;;;;;;;5.18;4.28;;;3.20;99.90;;;;;;5062330;28;20049;-67
2023/02/05 00:51:18;;;;;;;5.65;4.22;;;3.30;99.90;;;;;;5046495;28;20060;-68
2023/02/05 00:53:43;;;;;;;5.95;4.50;;;3.20;99.90;;;;;;5044980;28;20052;-68
2023/02/05 00:56:09;;;;;;;5.20;4.05;;;3.20;99.90;;;;;;5063030;28;20071;-68
2023/02/05 00:58:36;;;;;;;8.90;4.90;;;3.30;99.90;;;;;;5046850;28;20044;-68
2023/02/05 01:01:02;;;;;;;5.07;4.40;;;3.30;99.90;;;;;;5044639;28;20258;-68
2023/02/05 01:03:27;;;;;;;8.68;4.40;;;3.30;99.90;;;;;;5044886;28;20522;-68
2023/02/05 01:05:54;;;;;;;6.05;4.47;;;3.30;99.90;;;;;;5079208;28;20036;-68
2023/02/05 01:08:19;;;;;;;5.68;4.80;;;3.40;99.90;;;;;;5047532;28;20053;-68
2023/02/05 01:10:47;;;;;;;5.95;4.65;;;3.30;99.90;;;;;;5078473;28;20051;-68
2023/02/05 01:13:14;;;;;;;8.25;4.18;;;3.40;99.90;;;;;;5047135;28;20550;-68
2023/02/05 01:15:40;;;;;;;7.03;4.57;;;3.40;99.90;;;;;;5078305;28;20136;-68
2023/02/05 01:18:07;;;;;;;5.72;4.20;;;3.40;99.90;;;;;;5078253;28;20124;-68
2023/02/05 01:20:35;;;;;;;8.73;4.38;;;3.40;99.90;;;;;;5028298;28;20051;-68
2023/02/05 01:23:01;;;;;;;7.75;4.80;;;3.50;99.90;;;;;;5045273;28;20409;-68
2023/02/05 01:25:27;;;;;;;7.30;4.70;;;3.50;99.90;;;;;;5078195;28;20041;-68
2023/02/05 01:27:52;;;;;;;10.40;5.15;;;3.50;99.90;;;;;;5064064;28;20048;-68
2023/02/05 01:30:18;;;;;;;5.80;4.85;;;3.50;99.90;;;;;;5079074;28;20430;-69
2023/02/05 01:32:44;;;;;;;6.95;4.65;;;3.50;99.90;;;;;;5045387;28;20049;-69
2023/02/05 01:35:10;;;;;;;6.05;4.82;;;3.60;99.90;;;;;;5045078;28;20071;-68
2023/02/05 01:37:36;;;;;;;7.43;4.70;;;3.50;99.90;;;;;;5046213;28;20041;-68
2023/02/05 01:40:02;;;;;;;6.82;4.70;;;3.50;99.90;;;;;;5045214;28;20081;-69
2023/02/05 01:42:29;;;;;;;8.95;4.95;;;3.50;99.90;;;;;;5052283;28;20086;-68
2023/02/05 01:45:28;;;;;;;8.20;5.45;;;3.50;99.90;;;;;;5048980;28;20469;-69
2023/02/05 01:47:54;;;;;;;7.60;5.68;;;3.60;99.90;;;;;;5078106;28;20088;-69
2023/02/05 01:50:33;;;;;;;9.50;4.78;;;3.50;99.90;;;;;;5044755;28;20138;-69
2023/02/05 01:53:04;;;;;;;6.30;4.60;;;3.60;99.90;;;;;;5077845;28;20141;-69
2023/02/05 01:55:31;;;;;;;6.43;4.68;;;3.60;99.90;;;;;;5044027;28;20041;-69
2023/02/05 01:58:00;;;;;;;9.05;4.82;;;3.60;99.90;;;;;;5043961;28;20056;-68
2023/02/05 02:00:26;;;;;;;7.90;5.50;;;3.60;99.90;;;;;;5040422;28;20065;-69
2023/02/05 02:02:53;;;;;;;7.85;5.20;;;3.60;99.90;;;;;;5043503;28;20381;-68
2023/02/05 02:05:19;;;;;;;10.40;5.00;;;3.60;99.90;;;;;;5044760;28;20047;-69
2023/02/05 02:07:45;;;;;;;7.00;4.78;;;3.60;99.90;;;;;;5043716;28;20041;-69
2023/02/05 02:10:14;;;;;;;5.90;5.00;;;3.60;99.90;;;;;;5078241;28;20053;-69
2023/02/05 02:12:42;;;;;;;9.48;5.78;;;3.60;99.90;;;;;;5078115;28;20144;-69
2023/02/05 02:15:23;;;;;;;8.55;5.07;;;3.60;99.90;;;;;;5077666;28;20048;-69
2023/02/05 02:18:24;;;;;;;7.05;5.32;;;3.70;99.90;;;;;;5045078;28;20081;-69
2023/02/05 02:20:42;;;;;;;6.13;5.03;;;3.60;99.90;;;;;;5043782;28;20105;-69
2023/02/05 02:23:35;;;;;;;15.80;5.32;;;3.60;99.90;;;;;;5078297;28;20049;-69
2023/02/05 02:26:41;;;;;;;12.75;6.25;;;3.70;99.90;;;;;;5077503;28;20084;-69
2023/02/05 02:29:14;;;;;;;9.10;5.10;;;3.70;99.90;;;;;;5038859;28;20170;-69
2023/02/05 02:31:54;;;;;;;6.30;5.13;;;3.70;99.90;;;;;;5082173;28;20498;-69
2023/02/05 02:34:30;;;;;;;9.57;5.68;;;3.70;99.90;;;;;;5095057;28;20066;-69
2023/02/05 02:37:02;;;;;;;11.32;5.72;;;3.70;99.90;;;;;;5091476;28;20479;-68
2023/02/05 02:39:35;;;;;;;10.95;5.53;;;3.70;99.90;;;;;;5065249;28;20088;-69
2023/02/05 02:42:08;;;;;;;9.88;5.40;;;3.70;99.90;;;;;;5080979;28;20506;-68
2023/02/05 02:44:49;;;;;;;15.73;6.20;;;3.70;99.90;;;;;;5082190;28;20098;-68
2023/02/05 02:47:20;;;;;;;15.43;6.43;;;3.70;99.90;;;;;;5030357;28;20053;-69
2023/02/05 02:49:54;;;;;;;;;;;3.80;99.90;;;;;;5082077;28;20045;-70
2023/02/05 02:52:22;;;;;;;10.15;5.78;;;3.80;99.90;;;;;;5047993;28;20015;-69
2023/02/05 02:54:51;;;;;;;13.48;5.75;;;3.70;99.90;;;;;;5080766;28;20049;-69
2023/02/05 02:57:20;;;;;;;13.23;6.25;;;3.80;99.90;;;;;;5082140;28;20465;-69
2023/02/05 02:59:48;;;;;;;13.05;6.75;;;3.80;99.90;;;;;;5080877;28;20401;-69
2023/02/05 03:02:15;;;;;;;11.68;6.40;;;3.70;99.90;;;;;;5081104;28;20049;-69
2023/02/05 03:04:46;;;;;;;19.13;7.50;;;3.70;99.90;;;;;;5081702;28;20053;-69
2023/02/05 03:07:36;;;;;;;17.90;7.15;;;3.70;99.90;;;;;;5047078;28;20049;-69
2023/02/05 03:10:15;;;;;;;18.40;7.25;;;3.80;99.90;;;;;;5049117;28;20128;-69
2023/02/05 03:12:41;;;;;;;16.38;6.82;;;3.70;99.90;;;;;;5048229;28;20565;-70
2023/02/05 03:15:09;;;;;;;13.70;6.78;;;3.70;99.90;;;;;;5048854;28;20052;-70
2023/02/05 03:17:36;;;;;;;15.98;7.07;;;3.70;99.90;;;;;;5064038;28;20052;-69
2023/02/05 03:20:34;;;;;;;16.42;6.18;;;3.80;99.90;;;;;;5048383;28;20049;-69
2023/02/05 03:23:00;;;;;;;16.35;6.68;;;3.80;99.90;;;;;;5081556;28;20059;-70
2023/02/05 03:25:29;;;;;;;22.90;7.15;;;3.80;99.90;;;;;;5063821;28;20494;-69
2023/02/05 03:27:56;;;;;;;17.02;6.93;;;3.80;99.90;;;;;;5080982;28;20187;-70
2023/02/05 03:30:28;;;;;;;18.77;7.53;;;3.80;99.90;;;;;;5080385;28;20950;-70
2023/02/05 03:33:23;;;;;;;21.38;7.53;;;3.80;99.90;;;;;;5080467;28;20103;-69
2023/02/05 03:36:16;;;;;;;17.67;6.82;;;3.80;99.90;;;;;;5089603;28;20048;-69
2023/02/05 03:39:13;;;;;;;17.83;7.32;;;3.90;99.90;;;;;;5036285;28;20048;-69
2023/02/05 03:41:54;;;;;;;16.92;7.20;;;3.90;99.90;;;;;;5058116;28;20068;-69
2023/02/05 03:44:43;;;;;;;29.15;7.05;;;3.90;99.90;;;;;;5080750;28;20052;-70
2023/02/05 03:47:37;;;;;;;16.60;6.50;;;3.90;99.90;;;;;;5026983;28;20067;-70
2023/02/05 03:50:03;;;;;;;12.88;7.05;;;3.90;99.90;;;;;;5080297;28;20076;-70
2023/02/05 03:52:41;;;;;;;19.48;6.93;;;3.90;99.90;;;;;;5048472;28;20508;-70
2023/02/05 03:55:16;;;;;;;17.20;7.03;;;3.90;99.90;;;;;;5079311;28;20045;-69
2023/02/05 03:57:59;;;;;;;14.65;7.10;;;3.90;99.90;;;;;;5081097;28;20091;-69
2023/02/05 04:00:26;;;;;;;14.02;6.97;;;3.90;99.90;;;;;;5079231;28;20036;-69
2023/02/05 04:02:51;;;;;;;16.02;7.63;;;3.90;99.90;;;;;;5080316;28;20087;-70
2023/02/05 04:05:21;;;;;;;13.10;7.10;;;3.90;99.90;;;;;;5079772;28;20053;-70
2023/02/05 04:07:48;;;;;;;19.25;7.05;;;3.90;99.90;;;;;;5079610;28;20064;-69
2023/02/05 04:10:15;;;;;;;16.27;7.65;;;4.00;99.90;;;;;;5079944;28;20045;-69
2023/02/05 04:12:41;;;;;;;17.05;7.30;;;4.00;99.90;;;;;;5045593;28;20132;-70
2023/02/05 04:15:10;;;;;;;19.23;7.43;;;4.00;99.90;;;;;;5080309;28;20136;-70
2023/02/05 04:17:37;;;;;;;15.27;7.35;;;4.00;99.90;;;;;;5079065;28;20041;-69
2023/02/05 04:20:04;;;;;;;17.63;7.10;;;4.00;99.90;;;;;;5080411;28;20183;-69
2023/02/05 04:22:31;;;;;;;18.45;7.75;;;4.00;99.90;;;;;;5079689;28;20537;-69
2023/02/05 04:24:56;;;;;;;17.83;7.75;;;4.00;99.90;;;;;;5062835;28;20410;-69
2023/02/05 04:27:22;;;;;;;25.85;8.52;;;4.00;99.90;;;;;;5079548;28;20044;-69
2023/02/05 04:29:48;;;;;;;18.15;9.18;;;4.00;99.90;;;;;;5079259;28;20094;-68
2023/02/05 04:32:13;;;;;;;30.63;9.05;;;4.00;99.90;;;;;;5046125;28;20441;-68
2023/02/05 04:34:39;;;;;;;20.27;8.90;;;4.00;99.90;;;;;;5028685;28;20680;-68
2023/02/05 04:37:05;;;;;;;26.17;8.77;;;4.00;99.90;;;;;;5057732;28;20045;-68
2023/02/05 04:39:31;;;;;;;19.98;8.98;;;4.10;99.90;;;;;;5078997;28;20041;-68
2023/02/05 04:41:57;;;;;;;22.63;8.93;;;4.10;99.90;;;;;;5047208;28;20135;-68
2023/02/05 04:44:23;;;;;;;22.02;8.73;;;4.10;99.90;;;;;;5046955;28;20111;-68
2023/02/05 04:46:49;;;;;;;23.10;8.90;;;4.10;99.90;;;;;;5045080;28;20483;-68
2023/02/05 04:49:14;;;;;;;26.90;8.38;;;4.20;99.90;;;;;;5079351;28;20587;-68
2023/02/05 04:51:40;;;;;;;21.05;8.80;;;4.20;99.90;;;;;;5046277;28;20040;-68
2023/02/05 04:54:07;;;;;;;29.20;8.55;;;4.20;99.90;;;;;;5080010;28;20132;-68
2023/02/05 04:56:33;;;;;;;29.80;8.77;;;4.20;99.90;;;;;;5045048;28;20548;-68
2023/02/05 04:58:59;;;;;;;27.02;9.25;;;4.20;99.90;;;;;;5079301;28;20044;-68
2023/02/05 05:01:27;;;;;;;27.45;9.63;;;4.20;99.90;;;;;;5061923;28;20459;-68
2023/02/05 05:03:52;;;;;;;35.60;10.02;;;4.30;99.90;;;;;;5045119;28;20055;-68
2023/02/05 05:06:18;;;;;;;33.55;9.48;;;4.30;99.90;;;;;;5047021;28;20052;-68
2023/02/05 05:08:44;;;;;;;33.30;9.95;;;4.40;99.90;;;;;;5078170;28;20053;-68
2023/02/05 05:11:16;;;;;;;35.13;10.32;;;4.40;99.90;;;;;;5079260;28;20043;-68
2023/02/05 05:13:43;;;;;;;31.27;9.98;;;4.40;99.90;;;;;;5081846;28;20389;-68
2023/02/05 05:16:10;;;;;;;33.58;10.55;;;4.40;99.90;;;;;;5062410;28;20406;-68
2023/02/05 05:18:36;;;;;;;30.40;10.10;;;4.40;99.90;;;;;;5078448;28;20557;-69
2023/02/05 05:21:03;;;;;;;45.55;10.80;;;4.40;99.90;;;;;;5078562;28;20844;-69
2023/02/05 05:23:29;;;;;;;29.98;9.07;;;4.50;99.90;;;;;;5078778;28;20052;-69
2023/02/05 05:25:56;;;;;;;33.33;10.50;;;4.50;99.90;;;;;;5078030;28;20045;-68
2023/02/05 05:28:21;;;;;;;32.05;10.60;;;4.50;99.90;;;;;;5045018;28;20041;-68
2023/02/05 05:30:47;;;;;;;33.97;10.70;;;4.50;99.90;;;;;;5044757;28;20426;-68
2023/02/05 05:33:13;;;;;;;42.15;10.63;;;4.50;99.90;;;;;;5044375;28;20045;-68
2023/02/05 05:35:39;;;;;;;32.65;10.27;;;4.50;99.90;;;;;;5084841;28;20048;-68
2023/02/05 05:38:05;;;;;;;28.23;10.68;;;4.50;99.90;;;;;;5031060;28;20086;-68
2023/02/05 05:46:04;;;;;;;48.35;12.43;;;4.50;99.90;;;;;;5078828;28;20056;-68
2023/02/05 05:48:30;;;;;;;31.73;11.57;;;4.50;99.90;;;;;;5045328;28;20545;-68
2023/02/05 05:50:56;;;;;;;32.75;11.55;;;4.50;99.90;;;;;;5062050;28;20068;-68
2023/02/05 05:53:22;;;;;;;44.00;11.40;;;4.50;99.90;;;;;;5044903;28;20360;-68
2023/02/05 05:55:48;;;;;;;45.55;13.23;;;4.60;99.90;;;;;;5045898;28;20582;-68
2023/02/05 05:58:14;;;;;;;51.50;13.05;;;4.60;99.90;;;;;;5078672;28;20543;-68
2023/02/05 06:00:40;;;;;;;62.15;13.55;;;4.60;99.90;;;;;;5045128;28;20052;-68
2023/02/05 06:03:06;;;;;;;55.65;14.40;;;4.60;99.90;;;;;;5046449;28;20057;-69
2023/02/05 06:05:32;;;;;;;40.15;13.05;;;4.60;99.90;;;;;;5064360;28;20509;-68
2023/02/05 06:07:58;;;;;;;53.00;14.32;;;4.70;99.90;;;;;;5082951;28;20053;-68
2023/02/05 06:10:24;;;;;;;60.60;16.48;;;4.80;99.90;;;;;;5081934;28;20376;-68
2023/02/05 06:12:51;;;;;;;50.83;15.52;;;4.80;99.90;;;;;;5031910;28;20568;-68
2023/02/05 06:15:18;;;;;;;50.92;17.70;;;5.00;99.90;;;;;;5032364;28;20050;-68
2023/02/05 06:17:44;;;;;;;60.35;15.98;;;5.20;99.90;;;;;;5081421;28;20076;-68
2023/02/05 06:20:11;;;;;;;64.57;18.98;;;5.40;99.90;;;;;;5082634;28;20041;-68
2023/02/05 06:22:38;;;;;;;79.75;19.15;;;5.50;99.90;;;;;;5081307;28;20053;-68
2023/02/05 06:25:04;;;;;;;88.28;21.23;;;5.60;99.90;;;;;;5065346;28;20053;-68
2023/02/05 06:27:30;;;;;;;67.80;13.63;;;5.60;99.90;;;;;;5047707;28;20083;-68
2023/02/05 06:29:56;;;;;;;47.22;6.43;;;5.70;99.90;;;;;;5067821;28;20053;-68
2023/02/05 06:32:22;;;;;;;37.38;3.70;;;5.80;99.90;;;;;;5082476;28;20060;-68
2023/02/05 06:34:48;;;;;;;46.67;5.13;;;5.80;99.90;;;;;;5047166;28;20065;-68
2023/02/05 06:37:14;;;;;;;46.95;4.53;;;5.80;99.90;;;;;;5072431;28;20053;-67
2023/02/05 06:39:39;;;;;;;57.45;4.55;;;5.80;99.90;;;;;;5048100;28;20049;-68
2023/02/05 06:42:05;;;;;;;48.40;4.32;;;5.80;99.90;;;;;;5082206;28;20049;-68
2023/02/05 06:44:32;;;;;;;46.70;4.53;;;5.70;99.90;;;;;;5080620;28;20056;-68
2023/02/05 06:46:58;;;;;;;57.10;5.43;;;5.80;99.90;;;;;;5049573;28;20060;-68
2023/02/05 06:49:24;;;;;;;60.28;4.88;;;5.80;99.90;;;;;;5049518;28;20664;-68
2023/02/05 06:51:49;;;;;;;49.45;4.57;;;5.70;99.90;;;;;;5081897;28;20044;-67
2023/02/05 06:54:15;;;;;;;52.72;5.72;;;5.70;99.90;;;;;;5081822;28;20041;-67
2023/02/05 06:56:41;;;;;;;40.20;4.10;;;5.70;99.90;;;;;;5048438;28;20041;-68
2023/02/05 06:59:07;;;;;;;28.50;3.35;;;5.70;99.90;;;;;;5048275;28;20510;-67
2023/02/05 07:01:33;;;;;;;41.58;4.13;;;5.80;99.90;;;;;;5048067;28;20483;-67
2023/02/05 07:03:59;;;;;;;48.22;4.13;;;5.80;99.90;;;;;;5048059;28;20053;-67
2023/02/05 07:06:25;;;;;;;43.70;3.88;;;5.80;99.90;;;;;;5081076;28;20044;-68
2023/02/05 07:08:52;;;;;;;37.72;3.88;;;5.80;99.90;;;;;;5080491;28;20044;-67
2023/02/05 07:11:19;;;;;;;33.22;3.42;;;5.80;99.90;;;;;;5048202;28;20787;-67
2023/02/05 07:13:45;;;;;;;50.60;3.65;;;5.80;99.90;;;;;;5048249;28;20048;-67
2023/02/05 07:16:11;;;;;;;38.47;3.97;;;5.80;99.90;;;;;;5047967;28;20112;-68
2023/02/05 07:18:37;;;;;;;46.28;5.05;;;5.80;99.90;;;;;;5048018;28;20139;-67
2023/02/05 07:21:07;;;;;;;45.30;4.60;;;5.80;99.90;;;;;;5047828;28;20049;-68
2023/02/05 07:23:34;;;;;;;60.65;5.82;;;5.80;99.90;;;;;;5030053;28;20041;-67
2023/02/05 07:26:07;;;;;;;43.13;4.65;;;5.80;99.90;;;;;;5048632;28;20052;-68
2023/02/05 07:28:33;;;;;;;53.65;5.78;;;5.80;99.90;;;;;;5048485;28;20047;-67
2023/02/05 07:31:09;;;;;;;54.65;6.07;;;5.80;99.90;;;;;;5047830;28;20495;-67
2023/02/05 07:33:37;;;;;;;35.60;4.40;;;5.80;99.90;;;;;;5048781;28;20477;-67
2023/02/05 07:36:05;;;;;;;59.40;6.78;;;5.90;99.90;;;;;;5057627;28;20111;-67
2023/02/05 07:38:31;;;;;;;47.92;6.13;;;5.90;99.90;;;;;;5049080;28;20047;-68
2023/02/05 07:40:57;;;;;;;41.08;4.65;;;5.90;99.90;;;;;;5048085;28;20129;-67
2023/02/05 07:43:23;;;;;;;33.80;4.72;;;6.00;99.90;;;;;;5048405;28;20178;-67
2023/02/05 07:46:02;;;;;;;42.70;5.10;;;6.00;99.90;;;;;;5046956;28;20156;-67
2023/02/05 07:48:27;;;;;;;23.50;4.20;;;6.10;99.90;;;;;;5049272;28;20054;-67
2023/02/05 07:50:53;;;;;;;23.33;4.13;;;6.10;99.90;;;;;;5080321;28;20056;-67
2023/02/05 07:53:20;;;;;;;40.97;6.07;;;6.10;99.90;;;;;;5050313;28;20809;-67
2023/02/05 07:55:46;;;;;;;37.75;5.40;;;6.20;99.90;;;;;;5048793;28;20048;-67
2023/02/05 07:58:12;;;;;;;37.08;6.45;;;6.20;99.90;;;;;;5047126;28;20049;-67
2023/02/05 08:00:38;;;;;;;29.55;5.05;;;6.20;99.90;;;;;;5048313;28;20037;-67
2023/02/05 08:03:05;;;;;;;40.60;5.45;;;6.20;99.90;;;;;;5081019;28;20056;-67
2023/02/05 08:05:35;;;;;;;32.17;5.70;;;6.30;99.90;;;;;;5058261;28;20521;-67
2023/02/05 08:08:00;;;;;;;43.28;6.72;;;6.30;99.90;;;;;;5084795;28;20057;-67
2023/02/05 08:10:26;;;;;;;36.30;5.45;;;6.30;99.90;;;;;;5049454;28;20033;-67
2023/02/05 08:12:53;;;;;;;24.40;4.72;;;6.40;99.90;;;;;;5051626;28;20517;-67
2023/02/05 08:15:19;;;;;;;22.52;4.40;;;6.40;99.90;;;;;;5046248;28;20533;-68
2023/02/05 08:17:45;;;;;;;22.45;4.38;;;6.30;99.90;;;;;;5050020;28;20029;-68
2023/02/05 08:20:11;;;;;;;31.67;4.45;;;6.30;99.90;;;;;;5048075;28;20405;-68
2023/02/05 08:22:39;;;;;;;22.25;3.22;;;6.30;99.90;;;;;;5046715;28;20123;-67
2023/02/05 08:25:07;;;;;;;27.35;3.50;;;6.40;99.90;;;;;;5048835;28;20056;-68
2023/02/05 08:27:35;;;;;;;28.02;4.63;;;6.40;99.90;;;;;;5045790;28;20395;-68
2023/02/05 08:30:02;;;;;;;28.42;4.53;;;6.40;99.90;;;;;;5055686;28;20040;-68
2023/02/05 08:32:28;;;;;;;29.52;3.83;;;6.40;99.90;;;;;;5052682;28;20059;-68
2023/02/05 08:34:54;;;;;;;31.38;3.83;;;6.50;99.90;;;;;;5050580;28;20044;-68
2023/02/05 08:37:20;;;;;;;19.95;3.40;;;6.50;99.90;;;;;;5079919;28;20124;-68
2023/02/05 08:39:45;;;;;;;33.22;4.70;;;6.60;99.90;;;;;;5046811;28;20479;-67
2023/02/05 08:42:11;;;;;;;28.13;4.07;;;6.60;99.90;;;;;;5049416;28;20036;-68
2023/02/05 08:44:38;;;;;;;26.85;4.53;;;6.60;99.90;;;;;;5050188;28;20099;-68
2023/02/05 08:47:04;;;;;;;25.80;3.17;;;6.60;99.90;;;;;;5046223;28;20049;-68
2023/02/05 08:49:30;;;;;;;24.50;3.83;;;6.50;99.90;;;;;;5046590;28;20403;-69
2023/02/05 08:51:57;;;;;;;14.27;2.97;;;6.50;99.90;;;;;;5050754;28;20045;-68
2023/02/05 08:54:23;;;;;;;24.67;3.42;;;6.50;99.90;;;;;;5047378;28;20075;-69
2023/02/05 08:56:50;;;;;;;16.27;2.35;;;6.50;99.90;;;;;;5045144;28;20124;-69
2023/02/05 08:59:16;;;;;;;19.02;2.97;;;6.50;99.90;;;;;;5047408;28;20041;-69
2023/02/05 09:01:43;;;;;;;13.32;2.40;;;6.50;99.90;;;;;;5061409;28;20040;-69
2023/02/05 09:04:19;;;;;;;11.02;2.22;;;6.50;99.90;;;;;;5029229;28;20045;-69
2023/02/05 09:06:45;;;;;;;21.23;3.15;;;6.50;99.90;;;;;;5061581;28;20095;-68
2023/02/05 09:09:12;;;;;;;20.80;2.92;;;6.50;99.90;;;;;;5048906;28;20047;-69
2023/02/05 09:11:38;;;;;;;13.02;2.58;;;6.50;99.90;;;;;;5047957;28;20037;-69
2023/02/05 09:14:04;;;;;;;16.58;2.90;;;6.50;99.90;;;;;;5044694;28;20056;-68
2023/02/05 09:16:30;;;;;;;25.50;2.78;;;6.50;99.90;;;;;;5049642;28;20120;-68
2023/02/05 09:18:59;;;;;;;20.13;2.97;;;6.50;99.90;;;;;;5044643;28;20052;-68
2023/02/05 09:21:25;;;;;;;11.45;2.17;;;6.60;99.90;;;;;;5046868;28;20037;-69
2023/02/05 09:23:52;;;;;;;22.20;3.35;;;6.60;99.90;;;;;;5077112;28;20102;-69
2023/02/05 09:26:19;;;;;;;12.48;2.08;;;6.60;99.90;;;;;;5080203;28;20491;-68
2023/02/05 09:28:44;;;;;;;20.60;3.45;;;6.60;99.90;;;;;;5061852;28;20052;-69
2023/02/05 09:31:12;;;;;;;23.73;2.95;;;6.60;99.90;;;;;;5061313;28;20032;-69
2023/02/05 09:33:38;;;;;;;17.55;2.17;;;6.60;99.90;;;;;;5046110;28;20126;-68
2023/02/05 09:36:06;;;;;;;19.30;2.88;;;6.60;99.90;;;;;;5046053;28;20503;-69
2023/02/05 09:38:32;;;;;;;20.85;2.80;;;6.60;99.90;;;;;;5028473;28;20041;-69
2023/02/05 09:41:16;;;;;;;20.90;3.38;;;6.60;99.90;;;;;;5078764;28;20056;-68
2023/02/05 09:43:45;;;;;;;20.00;3.10;;;6.60;99.90;;;;;;5048142;28;20542;-69
2023/02/05 09:46:30;;;;;;;18.33;2.28;;;6.60;99.90;;;;;;5073605;28;20064;-68
2023/02/05 09:49:07;;;;;;;25.90;3.47;;;6.60;99.90;;;;;;5043767;28;20099;-68
2023/02/05 09:51:42;;;;;;;18.92;2.13;;;6.60;99.90;;;;;;5044655;28;20075;-69
2023/02/05 09:54:23;;;;;;;26.92;3.95;;;6.70;99.90;;;;;;5040766;28;20052;-69
2023/02/05 09:56:53;;;;;;;21.75;2.88;;;6.70;99.90;;;;;;5044484;28;20083;-68
2023/02/05 09:59:27;;;;;;;20.33;2.75;;;6.80;99.90;;;;;;5045160;28;20120;-69
2023/02/05 10:02:02;;;;;;;19.50;3.75;;;6.80;99.90;;;;;;5043829;28;20088;-68
2023/02/05 10:04:28;;;;;;;23.73;2.95;;;6.80;99.90;;;;;;5061986;28;20045;-69
2023/02/05 10:07:13;;;;;;;25.40;3.38;;;6.90;99.90;;;;;;5043780;28;20446;-68
2023/02/05 10:09:58;;;;;;;21.15;3.15;;;7.00;99.90;;;;;;5046892;28;20052;-69
2023/02/05 10:12:24;;;;;;;14.70;2.30;;;7.00;99.90;;;;;;5045226;28;20068;-68
2023/02/05 10:15:18;;;;;;;25.05;3.45;;;7.10;99.90;;;;;;5047258;28;20437;-68
2023/02/05 10:18:18;;;;;;;23.48;3.50;;;7.10;99.90;;;;;;5046661;28;20041;-68
2023/02/05 10:21:23;;;;;;;32.35;3.22;;;7.10;99.90;;;;;;5046864;28;20063;-69
2023/02/05 10:24:04;;;;;;;22.52;3.38;;;7.00;99.90;;;;;;5043003;28;20422;-69
2023/02/05 10:26:55;;;;;;;24.80;3.03;;;7.00;99.90;;;;;;5044890;28;20425;-69
2023/02/05 10:29:43;;;;;;;28.40;3.72;;;7.00;99.90;;;;;;5043268;28;20088;-68
2023/02/05 10:32:24;;;;;;;28.35;3.67;;;6.90;99.90;;;;;;5039589;28;20033;-69
2023/02/05 10:34:56;;;;;;;24.05;3.10;;;6.90;99.90;;;;;;5046156;28;20041;-69
2023/02/05 10:37:49;;;;;;;29.58;4.13;;;6.90;99.90;;;;;;5076998;28;20094;-69
2023/02/05 10:40:20;;;;;;;19.00;3.05;;;6.90;99.90;;;;;;5044003;28;20052;-68
2023/02/05 10:42:52;;;;;;;35.10;4.25;;;6.90;99.90;;;;;;5074966;28;20574;-69
2023/02/05 10:45:24;;;;;;;31.58;5.22;;;6.90;99.90;;;;;;5043927;28;20045;-69
2023/02/05 10:47:57;;;;;;;25.48;3.58;;;6.80;99.90;;;;;;5053302;28;20064;-68
2023/02/05 10:50:29;;;;;;;39.35;5.05;;;6.90;99.90;;;;;;5078418;28;20067;-68
2023/02/05 10:52:55;;;;;;;40.75;5.25;;;7.00;99.90;;;;;;5081767;28;20615;-68
2023/02/05 10:55:21;;;;;;;45.40;5.72;;;7.10;99.90;;;;;;5078007;28;20040;-68
2023/02/05 10:57:47;;;;;;;26.05;4.63;;;7.10;99.90;;;;;;5063772;28;20060;-68
2023/02/05 11:00:19;;;;;;;27.60;4.95;;;7.30;99.90;;;;;;5047157;28;20045;-68
2023/02/05 11:02:51;;;;;;;30.20;4.03;;;7.50;99.90;;;;;;5077895;28;20060;-68
2023/02/05 11:05:28;;;;;;;34.38;4.88;;;7.70;99.90;;;;;;5049223;28;20091;-68
2023/02/05 11:07:54;;;;;;;38.10;5.47;;;7.70;99.90;;;;;;5047990;28;20060;-68
2023/02/05 11:10:51;;;;;;;31.48;5.43;;;7.70;99.90;;;;;;5047543;28;20110;-68
2023/02/05 11:13:21;;;;;;;39.40;6.32;;;7.60;99.90;;;;;;5052012;28;20136;-68
2023/02/05 11:15:53;;;;;;;;;;;7.60;99.90;;;;;;5063964;28;20044;-68
2023/02/05 11:18:28;;;;;;;47.60;6.28;;;7.60;99.90;;;;;;5047656;28;19924;-69
2023/02/05 11:20:56;;;;;;;32.53;4.85;;;7.60;99.90;;;;;;5031490;28;20059;-68
2023/02/05 11:23:23;;;;;;;52.95;7.07;;;7.50;99.90;;;;;;5045294;28;20403;-68
2023/02/05 11:25:58;;;;;;;43.28;5.20;;;7.50;99.90;;;;;;5081168;28;20059;-68
2023/02/05 11:28:32;;;;;;;45.35;5.65;;;7.50;99.90;;;;;;5058711;28;20493;-68
2023/02/05 11:31:22;;;;;;;56.85;7.32;;;7.50;99.90;;;;;;5046893;28;20045;-68
2023/02/05 11:33:48;;;;;;;38.97;5.47;;;7.40;99.90;;;;;;5047544;28;20844;-68
2023/02/05 11:36:22;;;;;;;42.35;6.07;;;7.40;99.90;;;;;;5081672;28;20094;-68
2023/02/05 11:38:53;;;;;;;46.45;6.82;;;7.50;99.90;;;;;;5049282;28;20045;-68
2023/02/05 11:41:31;;;;;;;62.92;8.35;;;7.40;99.90;;;;;;5048597;28;20129;-68
2023/02/05 11:43:59;;;;;;;52.58;8.85;;;7.50;99.90;;;;;;5050725;28;20045;-68
2023/02/05 11:46:33;;;;;;;50.17;8.38;;;7.50;99.90;;;;;;5046275;28;20137;-69
2023/02/05 11:49:01;;;;;;;53.45;6.72;;;7.60;99.90;;;;;;5048600;28;20407;-69
2023/02/05 11:51:50;;;;;;;53.90;6.68;;;7.60;99.90;;;;;;5049721;28;20057;-68
2023/02/05 11:54:30;;;;;;;49.30;7.43;;;7.70;99.90;;;;;;5045270;28;20045;-68
2023/02/05 11:57:04;;;;;;;34.63;6.65;;;7.70;99.90;;;;;;5079159;28;20128;-68
2023/02/05 11:59:30;;;;;;;39.78;6.85;;;7.80;99.90;;;;;;5044800;28;20118;-68
2023/02/05 12:02:27;;;;;;;52.28;7.30;;;7.80;99.90;;;;;;5079439;28;20045;-68
2023/02/05 12:05:02;;;;;;;45.35;7.80;;;7.80;99.90;;;;;;5043906;28;20079;-68
2023/02/05 12:07:37;;;;;;;54.10;8.88;;;7.80;99.90;;;;;;5046001;28;20510;-68
2023/02/05 12:10:03;;;;;;;46.20;7.45;;;7.80;99.90;;;;;;5051110;28;20045;-68
2023/02/05 12:12:38;;;;;;;53.38;8.35;;;7.70;99.90;;;;;;5045866;28;20053;-68
2023/02/05 12:15:15;;;;;;;51.03;8.68;;;7.80;99.90;;;;;;5047585;28;20049;-68
2023/02/05 12:18:12;;;;;;;53.42;7.65;;;7.80;99.90;;;;;;5046843;28;20056;-68
2023/02/05 12:20:47;;;;;;;47.35;8.13;;;7.80;99.90;;;;;;5078975;28;20044;-68
2023/02/05 12:23:40;;;;;;;58.22;8.73;;;7.90;99.90;;;;;;5046231;28;20055;-68
2023/02/05 12:26:32;;;;;;;40.92;7.90;;;7.90;99.90;;;;;;5030867;28;20057;-66
2023/02/05 12:29:32;;;;;;;49.83;7.50;;;8.00;99.90;;;;;;5077649;28;20120;-67
2023/02/05 12:32:35;;;;;;;49.45;8.23;;;8.00;99.90;;;;;;5045262;28;20540;-68
2023/02/05 12:35:15;;;;;;;58.38;8.35;;;8.10;99.90;;;;;;5077620;28;20060;-68
2023/02/05 12:38:16;;;;;;;37.72;7.53;;;8.00;99.90;;;;;;5044898;28;20131;-68
2023/02/05 12:41:17;;;;;;;52.92;7.78;;;8.00;99.90;;;;;;5047574;28;20060;-69
2023/02/05 12:43:48;;;;;;;60.28;9.40;;;8.00;99.90;;;;;;5036218;28;20083;-68
2023/02/05 12:46:45;;;;;;;45.28;6.53;;;8.00;99.90;;;;;;5044309;28;20499;-68
2023/02/05 12:49:32;;;;;;;46.75;6.85;;;7.90;99.90;;;;;;5048964;28;20074;-69
2023/02/05 12:52:16;;;;;;;57.97;8.98;;;7.80;99.90;;;;;;5032920;28;20127;-68
2023/02/05 12:54:55;;;;;;;55.53;7.95;;;7.70;99.90;;;;;;5045181;28;20056;-69
2023/02/05 12:57:30;;;;;;;45.58;7.40;;;7.60;99.90;;;;;;5046107;28;20044;-69
2023/02/05 13:00:04;;;;;;;49.30;8.13;;;7.60;99.90;;;;;;5029744;28;20120;-68
2023/02/05 13:03:05;;;;;;;50.70;8.32;;;7.60;99.90;;;;;;5051581;28;20041;-69
2023/02/05 13:05:38;;;;;;;50.22;7.47;;;7.60;99.90;;;;;;5076205;28;20607;-69
2023/02/05 13:08:19;;;;;;;48.58;8.70;;;7.60;99.90;;;;;;5044626;28;20033;-68
2023/02/05 13:11:06;;;;;;;63.45;9.35;;;7.70;99.90;;;;;;5061777;28;20045;-69
2023/02/05 13:13:40;;;;;;;54.30;8.55;;;7.70;99.90;;;;;;5058568;28;20764;-68